Time;durP1;ratioP1;P1;durP2;ratioP2;P2;SDS_P1;SDS_P2;PMS_P1;PMS_P2;Temp;Humidity;BMP_temperature;BMP_pressure;BME280_temperature;BME280_humidity;BME280_pressure;Samples;Min_cycle;Max_cycle;Signal;HPM_P1;HPM_P2
2022/09/26 00:00:24;;;;;;;8.30;5.55;;;;;;;25.93;83.01;98463.75;4988254;28;20054;-67
2022/09/26 00:03:09;;;;;;;6.85;6.15;;;;;;;25.85;83.03;98478.22;4988547;28;20062;-66
2022/09/26 00:05:58;;;;;;;6.47;5.70;;;;;;;25.78;84.07;98470.47;4987568;28;20050;-67
2022/09/26 00:08:40;;;;;;;8.13;5.80;;;;;;;25.83;83.44;98475.00;4988615;28;20046;-67
2022/09/26 00:11:33;;;;;;;7.80;5.25;;;;;;;25.94;83.48;98476.34;4988527;28;20137;-67
2022/09/26 00:14:21;;;;;;;6.80;5.57;;;;;;;25.88;83.12;98490.56;4988097;28;20046;-67
2022/09/26 00:17:10;;;;;;;5.35;4.82;;;;;;;25.88;83.54;98491.34;4987549;28;20054;-68
2022/09/26 00:19:53;;;;;;;9.68;5.25;;;;;;;25.93;82.94;98499.50;4980156;28;20049;-67
2022/09/26 00:22:42;;;;;;;6.10;5.25;;;;;;;25.93;82.82;98507.72;4987254;28;20438;-67
2022/09/26 00:25:31;;;;;;;8.27;5.20;;;;;;;25.94;83.16;98509.34;4987546;28;20070;-66
2022/09/26 00:28:21;;;;;;;6.78;5.50;;;;;;;25.90;84.47;98516.59;4978177;28;20070;-67
2022/09/26 00:31:09;;;;;;;7.53;5.57;;;;;;;25.89;83.56;98509.47;4990078;28;20046;-67
2022/09/26 00:33:58;;;;;;;7.28;5.70;;;;;;;25.93;83.41;98515.19;4967375;28;20043;-68
2022/09/26 00:36:40;;;;;;;9.43;5.22;;;;;;;25.91;83.98;98512.75;4989373;28;20145;-67
2022/09/26 00:39:29;;;;;;;9.07;6.10;;;;;;;26.05;83.54;98522.81;4986479;28;20565;-67
2022/09/26 00:42:15;;;;;;;9.57;5.88;;;;;;;26.19;82.80;98523.44;4968094;28;20043;-67
2022/09/26 00:45:04;;;;;;;7.00;5.45;;;;;;;26.06;82.99;98527.97;4951436;28;20051;-68
2022/09/26 00:47:58;;;;;;;10.00;5.47;;;;;;;26.18;82.68;98539.16;4966480;28;20154;-68
2022/09/26 00:50:48;;;;;;;6.38;5.25;;;;;;;26.24;83.07;98537.06;4968048;28;20061;-67
2022/09/26 00:53:42;;;;;;;6.75;6.05;;;;;;;26.24;82.75;98539.00;4967492;28;20055;-68
2022/09/26 00:56:45;;;;;;;6.32;5.40;;;;;;;26.31;82.71;98537.41;4955704;28;20086;-70
2022/09/26 00:59:47;;;;;;;10.80;7.53;;;;;;;26.38;81.96;98537.69;4947069;28;20471;-68
2022/09/26 01:02:36;;;;;;;10.80;8.20;;;;;;;26.38;81.97;98525.91;4942461;28;20815;-67
2022/09/26 01:05:22;;;;;;;12.23;8.27;;;;;;;26.55;81.66;98522.34;4931106;29;20280;-67
2022/09/26 01:08:11;;;;;;;15.40;8.30;;;;;;;26.56;81.04;98522.03;4948240;28;20051;-67
2022/09/26 01:10:54;;;;;;;11.32;7.63;;;;;;;26.68;80.99;98528.84;4933108;29;20114;-67
2022/09/26 01:13:43;;;;;;;9.50;7.18;;;;;;;26.63;81.23;98534.50;4931534;29;20051;-67
2022/09/26 01:16:26;;;;;;;10.80;8.38;;;;;;;26.67;80.85;98539.03;4948203;28;20079;-67
2022/09/26 01:19:38;;;;;;;11.18;7.38;;;;;;;26.68;81.13;98535.16;4947785;29;20126;-67
2022/09/26 01:23:23;;;;;;;12.45;8.88;;;;;;;26.87;80.43;98536.75;4917345;29;20051;-67
2022/09/26 01:26:23;;;;;;;14.55;9.32;;;;;;;26.92;80.18;98545.66;4917492;28;20121;-67
2022/09/26 01:29:40;;;;;;;10.30;8.45;;;;;;;26.92;80.34;98539.31;4965691;28;20058;-67
2022/09/26 01:32:47;;;;;;;16.05;9.30;;;;;;;26.93;80.18;98530.75;4919642;28;20050;-67
2022/09/26 01:35:42;;;;;;;23.42;11.23;;;;;;;26.81;80.02;98538.88;4965259;28;20058;-67
2022/09/26 01:38:49;;;;;;;15.30;10.98;;;;;;;26.87;79.67;98548.56;4965607;28;20110;-67
2022/09/26 01:41:38;;;;;;;14.77;10.07;;;;;;;27.11;79.04;98547.22;4963537;28;20042;-67
2022/09/26 01:44:49;;;;;;;15.75;9.32;;;;;;;27.21;78.76;98557.91;4957149;28;20053;-67
2022/09/26 01:47:51;;;;;;;17.45;9.60;;;;;;;27.21;78.81;98565.34;4944255;28;20046;-67
2022/09/26 01:50:48;;;;;;;14.63;10.32;;;;;;;27.48;77.84;98558.69;4949913;28;20057;-68
2022/09/26 01:54:02;;;;;;;16.40;11.30;;;;;;;27.47;77.35;98554.28;4945536;28;20708;-66
2022/09/26 01:56:56;;;;;;;20.23;11.35;;;;;;;27.30;77.50;98552.41;4958314;28;20458;-67
2022/09/26 01:59:43;;;;;;;17.80;11.50;;;;;;;27.20;77.34;98558.25;4949787;28;20769;-68
2022/09/26 02:02:40;;;;;;;21.63;11.55;;;;;;;27.52;77.14;98562.38;4960951;28;20051;-67
2022/09/26 02:05:51;;;;;;;14.98;11.63;;;;;;;27.38;76.91;98556.25;4966953;28;20061;-68
2022/09/26 02:08:58;;;;;;;18.55;11.65;;;;;;;27.53;76.08;98559.31;4961950;28;20142;-67
2022/09/26 02:11:45;;;;;;;17.88;12.13;;;;;;;27.60;75.84;98566.25;4969720;28;20061;-68
2022/09/26 02:14:37;;;;;;;;;;;;;;;27.71;75.46;98570.25;4954053;28;20054;-68
2022/09/26 02:17:32;;;;;;;17.40;10.95;;;;;;;27.96;74.89;98576.81;4953727;28;19933;-67
2022/09/26 02:20:29;;;;;;;20.38;12.57;;;;;;;27.87;75.00;98582.31;4972318;28;20055;-68
2022/09/26 02:23:11;;;;;;;20.05;12.38;;;;;;;27.95;75.11;98577.13;4970731;28;20050;-68
2022/09/26 02:26:00;;;;;;;20.33;12.80;;;;;;;27.77;74.68;98584.66;4955754;28;20053;-68
2022/09/26 02:28:42;;;;;;;16.63;12.20;;;;;;;27.79;74.36;98583.19;4968769;28;20521;-68
2022/09/26 02:31:38;;;;;;;22.67;13.65;;;;;;;27.67;74.98;98588.59;4955997;28;20047;-68
2022/09/26 02:34:21;;;;;;;20.70;11.80;;;;;;;28.11;74.15;98589.22;4958972;28;20050;-68
2022/09/26 02:37:12;;;;;;;23.30;12.82;;;;;;;27.90;75.36;98589.97;4988822;28;20137;-68
2022/09/26 02:39:56;;;;;;;20.70;12.73;;;;;;;28.09;74.43;98586.81;4991228;28;20054;-68
2022/09/26 02:42:56;;;;;;;22.92;13.18;;;;;;;27.62;75.24;98589.59;4970610;28;20101;-68
2022/09/26 02:45:48;;;;;;;18.90;13.07;;;;;;;28.15;75.14;98583.84;4950657;29;20066;-68
2022/09/26 02:49:04;;;;;;;24.00;13.07;;;;;;;28.02;74.94;98580.19;4956770;28;20050;-68
2022/09/26 02:52:00;;;;;;;19.63;12.95;;;;;;;28.08;74.40;98579.66;4969134;28;20158;-68
2022/09/26 02:55:07;;;;;;;22.15;13.18;;;;;;;27.62;76.02;98586.81;4951207;28;20051;-68
2022/09/26 02:58:15;;;;;;;23.30;14.13;;;;;;;27.63;76.92;98571.09;4963616;28;20849;-68
2022/09/26 03:01:38;;;;;;;23.15;13.85;;;;;;;27.43;77.04;98578.94;4957001;28;20051;-68
2022/09/26 03:04:42;;;;;;;22.75;13.93;;;;;;;27.94;75.73;98564.50;4948797;29;20059;-68
2022/09/26 03:07:41;;;;;;;21.92;13.05;;;;;;;28.03;75.87;98559.72;4949445;28;20443;-68
2022/09/26 03:10:26;;;;;;;20.60;13.32;;;;;;;28.31;74.28;98560.03;4932350;29;20127;-68
2022/09/26 03:13:21;;;;;;;32.42;14.88;;;;;;;27.63;76.13;98568.31;4926388;29;20062;-68
2022/09/26 03:16:04;;;;;;;23.85;15.20;;;;;;;27.87;75.97;98554.75;4933589;29;20496;-68
2022/09/26 03:19:01;;;;;;;28.23;16.02;;;;;;;27.44;77.29;98565.97;4950714;29;20062;-68
2022/09/26 03:21:44;;;;;;;28.15;16.65;;;;;;;27.79;76.54;98569.41;4949741;29;20047;-68
2022/09/26 03:24:33;;;;;;;29.98;16.13;;;;;;;27.59;77.51;98579.22;4954275;28;20054;-68
2022/09/26 03:27:16;;;;;;;27.35;16.58;;;;;;;27.97;76.61;98586.69;4961902;28;20057;-69
2022/09/26 03:30:05;;;;;;;36.90;17.42;;;;;;;27.41;78.10;98586.72;4968163;28;20054;-68
2022/09/26 03:32:56;;;;;;;26.10;16.23;;;;;;;27.57;78.40;98588.94;4967810;28;20047;-67
2022/09/26 03:35:45;;;;;;;32.72;18.33;;;;;;;27.84;77.79;98591.28;4967774;28;20082;-68
2022/09/26 03:38:28;;;;;;;29.52;20.65;;;;;;;27.94;77.44;98605.88;4952182;28;20591;-68
2022/09/26 03:41:42;;;;;;;48.35;24.02;;;;;;;28.00;76.94;98613.63;4984126;28;20414;-68
2022/09/26 03:44:33;;;;;;;84.75;52.42;;;;;;;28.01;75.69;98622.69;5002140;28;20545;-68
2022/09/26 03:47:37;;;;;;;80.75;49.50;;;;;;;28.08;75.93;98625.75;4988618;28;20053;-68
2022/09/26 03:50:19;;;;;;;80.43;47.15;;;;;;;28.29;75.30;98626.59;4986544;28;20057;-67
2022/09/26 03:53:09;;;;;;;79.95;49.55;;;;;;;28.19;74.91;98623.44;4986491;28;20054;-68
2022/09/26 03:56:08;;;;;;;75.25;48.70;;;;;;;27.99;75.69;98628.53;4985746;28;20047;-68
2022/09/26 03:58:58;;;;;;;77.00;44.63;;;;;;;27.79;76.26;98637.53;4985752;28;20046;-66
2022/09/26 04:01:40;;;;;;;63.58;42.85;;;;;;;28.20;75.71;98633.31;4984584;28;20073;-67
2022/09/26 04:04:31;;;;;;;60.22;38.40;;;;;;;28.12;75.39;98641.28;4999782;28;20050;-67
2022/09/26 04:07:15;;;;;;;60.08;35.28;;;;;;;27.94;76.16;98647.25;4985054;28;20072;-67
2022/09/26 04:10:04;;;;;;;57.50;32.65;;;;;;;28.04;76.23;98646.88;4986214;28;20132;-67
2022/09/26 04:12:46;;;;;;;51.40;30.02;;;;;;;27.96;75.41;98654.03;4987035;28;20460;-67
2022/09/26 04:15:36;;;;;;;50.55;28.38;;;;;;;28.15;75.49;98666.63;4986696;28;20481;-66
2022/09/26 04:18:19;;;;;;;43.17;26.95;;;;;;;28.17;75.16;98684.47;5002692;28;20046;-67
2022/09/26 04:21:17;;;;;;;41.65;26.38;;;;;;;28.38;75.03;98692.00;4986622;28;20054;-68
2022/09/26 04:23:59;;;;;;;46.65;25.95;;;;;;;28.19;75.65;98704.25;4970816;28;20423;-68
2022/09/26 04:26:51;;;;;;;41.45;24.55;;;;;;;28.14;76.44;98711.91;4990780;28;20057;-69
2022/09/26 04:29:34;;;;;;;39.22;23.30;;;;;;;28.27;76.57;98719.16;4990928;28;20489;-68
2022/09/26 04:32:55;;;;;;;36.47;23.50;;;;;;;28.10;76.29;98715.31;4998292;28;20045;-68
2022/09/26 04:35:50;;;;;;;38.50;21.85;;;;;;;28.19;76.85;98726.31;5005148;28;20048;-69
2022/09/26 04:38:39;;;;;;;33.00;22.25;;;;;;;28.25;76.88;98727.75;5006252;28;20049;-69
2022/09/26 04:41:22;;;;;;;45.10;24.02;;;;;;;28.31;77.03;98725.63;4996696;28;20058;-68
2022/09/26 04:44:11;;;;;;;35.55;22.08;;;;;;;28.30;76.17;98724.81;4983198;28;20129;-68
2022/09/26 04:47:07;;;;;;;32.88;20.95;;;;;;;28.42;75.61;98723.31;4966520;28;20047;-68
2022/09/26 04:50:03;;;;;;;34.95;20.83;;;;;;;28.45;75.38;98728.16;4967232;28;20126;-68
2022/09/26 04:53:08;;;;;;;31.60;20.02;;;;;;;28.65;76.01;98723.88;4966775;28;20061;-68
2022/09/26 04:56:06;;;;;;;33.83;22.13;;;;;;;28.80;74.73;98726.03;4966242;28;20058;-68
2022/09/26 04:59:04;;;;;;;32.28;20.63;;;;;;;28.79;74.45;98729.94;4965707;28;20054;-69
2022/09/26 05:01:59;;;;;;;26.98;19.13;;;;;;;28.74;74.83;98737.59;4966829;28;20112;-69
2022/09/26 05:04:50;;;;;;;34.38;19.70;;;;;;;28.48;74.26;98730.25;4951071;28;20611;-71
2022/09/26 05:07:33;;;;;;;39.53;19.67;;;;;;;28.67;74.09;98727.91;4950254;28;20105;-69
2022/09/26 05:10:29;;;;;;;27.75;18.20;;;;;;;28.72;74.09;98723.31;4972684;28;20054;-71
2022/09/26 05:13:06;;;;;;;27.75;17.67;;;;;;;28.86;73.85;98721.94;4969533;28;20109;-69
2022/09/26 05:15:58;;;;;;;27.48;19.70;;;;;;;28.71;71.31;98717.00;4966409;28;20482;-70
2022/09/26 05:18:50;;;;;;;31.83;20.52;;;;;;;28.80;72.10;98726.03;4966334;28;20058;-70
2022/09/26 05:21:48;;;;;;;32.63;19.23;;;;;;;28.98;72.14;98723.97;4966269;28;20066;-70
2022/09/26 05:27:31;;;;;;;25.23;18.38;;;;;;;29.10;71.66;98717.69;4966139;28;20050;-69
2022/09/26 05:30:13;;;;;;;33.60;19.25;;;;;;;28.72;73.02;98713.09;4950549;28;20105;-70
2022/09/26 05:33:04;;;;;;;27.98;19.25;;;;;;;29.15;72.02;98722.25;4940954;28;20149;-71
2022/09/26 05:35:47;;;;;;;31.10;19.83;;;;;;;29.04;71.92;98719.88;4949165;28;20054;-71
2022/09/26 05:38:35;;;;;;;25.75;19.25;;;;;;;29.34;72.28;98708.75;4949673;28;20046;-71
2022/09/26 05:41:19;;;;;;;29.85;19.52;;;;;;;28.70;71.43;98709.88;4943719;28;20073;-71
2022/09/26 05:44:14;;;;;;;26.70;19.98;;;;;;;29.16;71.62;98710.88;4982734;28;20474;-69
2022/09/26 05:46:51;;;;;;;30.33;20.30;;;;;;;29.16;70.13;98710.03;4981846;28;20074;-70
2022/09/26 05:49:42;;;;;;;32.65;20.63;;;;;;;29.01;70.73;98709.47;4985564;28;20046;-70
2022/09/26 05:52:34;;;;;;;31.50;19.27;;;;;;;28.77;72.17;98703.81;4985048;28;20520;-71
2022/09/26 05:55:24;;;;;;;27.77;19.38;;;;;;;29.54;71.58;98711.81;4966470;28;20054;-71
2022/09/26 05:58:30;;;;;;;32.50;18.05;;;;;;;28.91;71.59;98698.84;4984527;28;20222;-72
2022/09/26 06:01:45;;;;;;;23.73;16.13;;;;;;;28.45;71.49;98700.53;4982478;28;20445;-71
2022/09/26 06:04:57;;;;;;;22.25;15.52;;;;;;;29.37;68.98;98698.97;4984812;28;20039;-70
2022/09/26 06:07:54;;;;;;;15.82;13.57;;;;;;;29.11;68.96;98699.19;4984508;28;20050;-66
2022/09/26 06:10:54;;;;;;;17.27;13.50;;;;;;;29.48;68.65;98692.69;4967891;28;20066;-67
2022/09/26 06:13:36;;;;;;;15.67;11.80;;;;;;;29.16;67.17;98686.00;4968255;28;20046;-67
2022/09/26 06:16:27;;;;;;;16.02;10.27;;;;;;;29.32;66.11;98680.66;4968925;28;20101;-68
2022/09/26 06:19:09;;;;;;;14.77;10.00;;;;;;;29.09;67.50;98683.72;4985355;28;20419;-67
2022/09/26 06:22:02;;;;;;;13.68;9.60;;;;;;;29.67;67.36;98674.75;4986637;28;20118;-68
2022/09/26 06:24:44;;;;;;;17.90;10.85;;;;;;;29.50;66.47;98669.41;4968583;28;20127;-68
2022/09/26 06:27:39;;;;;;;14.30;11.60;;;;;;;29.55;66.55;98670.00;4968339;28;20481;-69
2022/09/26 06:30:22;;;;;;;15.30;11.65;;;;;;;30.14;66.66;98666.09;4985122;28;20145;-69
2022/09/26 06:33:37;;;;;;;17.52;10.85;;;;;;;30.16;63.58;98661.03;4987750;28;20050;-69
2022/09/26 06:36:38;;;;;;;12.07;9.30;;;;;;;29.85;64.65;98670.69;4984992;28;20046;-68
2022/09/26 06:39:34;;;;;;;15.70;11.45;;;;;;;30.19;66.06;98654.81;4992685;28;20046;-68
2022/09/26 06:42:29;;;;;;;14.15;10.60;;;;;;;30.70;64.36;98661.94;4968239;28;20054;-67
2022/09/26 06:45:25;;;;;;;18.52;11.18;;;;;;;30.57;63.93;98661.97;4984311;28;20125;-67
2022/09/26 06:48:29;;;;;;;12.50;9.73;;;;;;;30.40;64.51;98656.66;4984353;28;20050;-68
2022/09/26 06:51:36;;;;;;;13.32;10.70;;;;;;;30.35;63.81;98657.72;4969053;28;20736;-67
2022/09/26 06:54:26;;;;;;;12.93;10.00;;;;;;;30.61;61.76;98657.34;4972004;28;20061;-68
2022/09/26 06:57:12;;;;;;;11.70;9.25;;;;;;;30.88;61.85;98643.06;4989332;28;20244;-68
2022/09/26 07:00:08;;;;;;;11.85;9.50;;;;;;;31.14;60.75;98637.09;4973004;28;20141;-68
2022/09/26 07:03:03;;;;;;;15.60;10.27;;;;;;;31.05;58.22;98636.44;4988877;28;20115;-67
2022/09/26 07:05:56;;;;;;;13.75;11.68;;;;;;;31.19;61.53;98631.31;4988584;28;20054;-68
2022/09/26 07:08:39;;;;;;;12.75;10.18;;;;;;;30.94;60.76;98631.41;4972086;28;20054;-68
2022/09/26 07:12:13;;;;;;;13.77;10.70;;;;;;;30.96;60.16;98617.22;4979639;28;20058;-68
2022/09/26 07:15:03;;;;;;;19.08;10.88;;;;;;;31.59;63.07;98611.81;4989690;28;20378;-68
2022/09/26 07:17:50;;;;;;;17.77;10.70;;;;;;;31.82;59.87;98613.19;4985323;28;20134;-68
2022/09/26 07:20:56;;;;;;;15.73;11.05;;;;;;;31.98;61.55;98611.19;4988834;28;20065;-68
2022/09/26 07:23:58;;;;;;;14.75;10.55;;;;;;;31.64;59.34;98607.16;4970972;28;20054;-68
2022/09/26 07:26:41;;;;;;;15.45;10.82;;;;;;;30.98;60.57;98590.75;4987289;28;20046;-68
2022/09/26 07:29:38;;;;;;;13.35;10.35;;;;;;;31.39;58.94;98594.25;4973508;28;20050;-68
2022/09/26 07:32:17;;;;;;;13.10;10.73;;;;;;;31.49;60.35;98586.56;4972082;28;20477;-69
2022/09/26 07:35:20;;;;;;;12.05;10.30;;;;;;;31.52;60.44;98583.91;4971792;28;20059;-66
2022/09/26 07:38:03;;;;;;;14.63;10.07;;;;;;;31.73;61.53;98580.84;4972038;28;20054;-69
2022/09/26 07:41:00;;;;;;;13.45;9.32;;;;;;;32.12;57.13;98569.94;4973873;28;20064;-69
2022/09/26 07:43:49;;;;;;;13.55;9.43;;;;;;;31.90;57.40;98563.03;4987811;28;20141;-68
2022/09/26 07:50:14;;;;;;;12.15;8.73;;;;;;;31.94;58.34;98552.03;4987657;28;20058;-67
2022/09/26 07:53:19;;;;;;;11.50;8.02;;;;;;;31.93;58.92;98550.41;4987058;28;20437;-67
2022/09/26 07:56:33;;;;;;;11.93;8.88;;;;;;;31.76;57.39;98552.41;4976565;28;20072;-68
2022/09/26 07:59:35;;;;;;;13.50;8.60;;;;;;;31.64;60.28;98541.38;4968092;28;20074;-68
2022/09/26 08:02:50;;;;;;;12.25;8.45;;;;;;;31.51;59.28;98529.59;4970845;28;20050;-68
2022/09/26 08:05:43;;;;;;;11.52;8.75;;;;;;;32.03;59.15;98533.25;4970502;28;20438;-68
2022/09/26 08:08:40;;;;;;;9.00;8.10;;;;;;;32.12;57.51;98528.28;4986780;28;20046;-68
2022/09/26 08:11:35;;;;;;;10.05;7.97;;;;;;;32.25;58.92;98523.41;4969035;28;20065;-68
2022/09/26 08:14:48;;;;;;;9.77;7.95;;;;;;;31.92;59.09;98521.06;4941370;28;20045;-68
2022/09/26 08:17:42;;;;;;;13.88;8.70;;;;;;;31.48;58.47;98519.22;4980819;28;20108;-68
2022/09/26 08:20:38;;;;;;;16.90;8.25;;;;;;;31.64;56.29;98510.88;4983329;28;20050;-68
2022/09/26 08:23:16;;;;;;;9.32;7.70;;;;;;;31.45;58.41;98516.31;5006604;28;20193;-69
2022/09/26 08:26:23;;;;;;;10.82;7.82;;;;;;;31.80;57.46;98508.09;4984832;28;20065;-68
2022/09/26 08:29:16;;;;;;;10.88;8.00;;;;;;;31.92;58.67;98507.19;4985467;28;20054;-68
2022/09/26 08:32:11;;;;;;;10.05;7.32;;;;;;;31.55;56.80;98505.53;4989249;28;20057;-67
2022/09/26 08:34:48;;;;;;;11.10;7.63;;;;;;;31.79;57.75;98507.28;4985291;28;20482;-68
2022/09/26 08:38:02;;;;;;;12.02;7.75;;;;;;;31.78;55.62;98497.34;4986359;28;20042;-67
2022/09/26 08:41:04;;;;;;;12.25;7.45;;;;;;;31.33;56.67;98493.06;4986438;28;20129;-67
2022/09/26 08:44:35;;;;;;;11.77;7.28;;;;;;;31.86;55.87;98490.00;4952805;28;20391;-68
2022/09/26 08:48:01;;;;;;;11.77;7.95;;;;;;;31.78;55.90;98486.25;4987714;28;20061;-68
2022/09/26 08:51:19;;;;;;;11.15;7.95;;;;;;;31.58;55.86;98484.56;4986250;28;20533;-67
2022/09/26 08:54:17;;;;;;;11.85;7.30;;;;;;;31.97;55.62;98479.16;4986401;28;20398;-67
2022/09/26 08:57:40;;;;;;;11.63;7.80;;;;;;;31.64;56.70;98469.25;4970652;28;20058;-67
2022/09/26 09:00:23;;;;;;;13.98;8.82;;;;;;;31.96;55.09;98458.91;4949709;28;20058;-67
2022/09/26 09:03:39;;;;;;;14.50;9.30;;;;;;;31.71;56.13;98466.66;4985906;28;20726;-68
2022/09/26 09:06:16;;;;;;;11.60;8.60;;;;;;;31.84;54.90;98459.03;4970130;28;20050;-69
2022/09/26 09:09:12;;;;;;;16.60;9.00;;;;;;;31.77;55.96;98456.88;4970403;28;20058;-69
2022/09/26 09:12:43;;;;;;;12.60;9.52;;;;;;;31.84;55.66;98449.91;4977823;28;20062;-69
2022/09/26 09:16:20;;;;;;;16.95;8.88;;;;;;;32.28;56.66;98444.13;4964693;28;20142;-68
2022/09/26 09:19:50;;;;;;;14.65;10.43;;;;;;;32.45;54.96;98431.78;4968109;28;20050;-69
2022/09/26 09:23:33;;;;;;;10.52;9.48;;;;;;;32.33;56.13;98422.44;4982906;28;20056;-69
2022/09/26 09:26:41;;;;;;;13.30;9.70;;;;;;;32.18;54.19;98415.78;4985584;28;20065;-69
2022/09/26 09:30:22;;;;;;;15.18;10.05;;;;;;;32.02;54.12;98414.22;4950337;28;20076;-70
2022/09/26 09:33:34;;;;;;;12.40;9.82;;;;;;;32.23;54.72;98405.53;4952706;28;20082;-69
2022/09/26 09:36:34;;;;;;;16.20;10.55;;;;;;;31.90;54.95;98404.06;4969603;28;20096;-70
2022/09/26 09:39:32;;;;;;;15.57;10.43;;;;;;;31.58;55.88;98393.84;4986778;28;20058;-69
2022/09/26 09:42:34;;;;;;;13.52;10.50;;;;;;;31.97;55.17;98390.34;4985142;28;20042;-69
2022/09/26 09:45:26;;;;;;;15.90;10.73;;;;;;;32.23;55.40;98377.78;4985627;28;20050;-69
2022/09/26 09:48:17;;;;;;;14.40;10.15;;;;;;;32.18;55.42;98376.13;4969446;28;20501;-68
2022/09/26 09:51:16;;;;;;;12.88;10.52;;;;;;;32.37;55.58;98380.84;4969785;28;20145;-69
2022/09/26 09:54:38;;;;;;;17.48;12.35;;;;;;;32.09;53.78;98372.75;4969426;28;20046;-69
2022/09/26 09:57:51;;;;;;;16.75;11.93;;;;;;;32.06;54.25;98370.69;4955840;28;20065;-69
2022/09/26 10:00:35;;;;;;;21.60;14.57;;;;;;;32.12;52.72;98372.00;4969339;28;20050;-68
2022/09/26 10:04:10;;;;;;;23.38;14.90;;;;;;;32.44;52.53;98369.84;4969259;28;20057;-69
2022/09/26 10:06:54;;;;;;;19.38;15.23;;;;;;;32.50;54.76;98371.16;4985895;28;20054;-69
2022/09/26 10:09:52;;;;;;;23.98;14.50;;;;;;;32.45;53.83;98376.22;4979386;28;20046;-69
2022/09/26 10:13:04;;;;;;;25.63;14.75;;;;;;;32.29;52.71;98367.97;4925668;29;20199;-70
2022/09/26 10:16:19;;;;;;;27.50;16.20;;;;;;;32.40;53.42;98363.44;4969427;28;20065;-71
2022/09/26 10:19:14;;;;;;;22.60;15.13;;;;;;;32.36;54.25;98355.03;4985870;28;20046;-69
2022/09/26 10:22:08;;;;;;;25.58;16.13;;;;;;;32.42;54.94;98352.75;4980220;28;20153;-69
2022/09/26 10:24:53;;;;;;;22.67;16.25;;;;;;;32.43;53.94;98348.81;4985195;28;20116;-69
2022/09/26 10:28:01;;;;;;;27.10;16.33;;;;;;;32.28;53.99;98346.94;4969836;28;20062;-68
2022/09/26 10:30:48;;;;;;;26.73;17.48;;;;;;;32.16;54.31;98345.94;5000960;28;20128;-69
2022/09/26 10:33:52;;;;;;;26.13;17.45;;;;;;;32.26;54.74;98338.19;5008190;28;20053;-70
2022/09/26 10:36:45;;;;;;;37.45;18.58;;;;;;;32.29;57.31;98327.16;5004729;28;20050;-68
2022/09/26 10:42:46;;;;;;;33.00;19.08;;;;;;;32.22;55.95;98323.41;4988500;28;20138;-68
2022/09/26 10:45:28;;;;;;;35.28;21.02;;;;;;;32.30;56.12;98325.16;4989645;28;20050;-67
2022/09/26 10:48:55;;;;;;;31.27;20.00;;;;;;;31.92;55.95;98319.25;4968637;28;20046;-69
2022/09/26 10:52:08;;;;;;;32.03;19.52;;;;;;;32.10;56.35;98319.66;4970492;28;20395;-69
2022/09/26 10:55:25;;;;;;;35.35;20.17;;;;;;;32.22;54.14;98315.06;4969148;28;20046;-69
2022/09/26 10:58:22;;;;;;;40.83;21.85;;;;;;;32.15;55.16;98316.56;4964877;28;20509;-69
2022/09/26 11:01:28;;;;;;;42.67;21.33;;;;;;;32.08;54.27;98313.66;4988522;28;20058;-69
2022/09/26 11:07:52;;;;;;;36.97;20.55;;;;;;;32.05;56.93;98294.16;4981318;28;20046;-68
2022/09/26 11:10:53;;;;;;;31.63;20.60;;;;;;;32.21;55.46;98291.28;4988148;28;20046;-68
2022/09/26 11:14:07;;;;;;;32.70;19.73;;;;;;;32.15;55.11;98294.34;4971662;28;20050;-68
2022/09/26 11:17:06;;;;;;;27.02;20.23;;;;;;;31.96;54.89;98291.56;4988669;28;20572;-70
2022/09/26 11:20:01;;;;;;;32.15;20.33;;;;;;;31.97;53.67;98293.97;4988424;28;20050;-69
2022/09/26 11:23:05;;;;;;;36.30;20.98;;;;;;;32.12;54.25;98284.00;4988934;28;20549;-69
2022/09/26 11:26:17;;;;;;;37.53;20.10;;;;;;;32.07;55.00;98277.94;4971600;28;20529;-68
2022/09/26 11:29:24;;;;;;;36.83;20.15;;;;;;;31.93;56.83;98275.63;4967330;28;20507;-70
2022/09/26 11:32:31;;;;;;;36.03;21.48;;;;;;;31.96;56.30;98280.47;4986811;28;20104;-69
2022/09/26 11:35:42;;;;;;;32.03;21.52;;;;;;;32.02;55.20;98272.69;4986814;28;20046;-68
2022/09/26 11:38:37;;;;;;;35.33;21.67;;;;;;;31.78;55.38;98274.59;4969905;28;20587;-68
2022/09/26 11:41:54;;;;;;;37.95;21.70;;;;;;;31.91;56.17;98266.88;4968413;28;20152;-71
2022/09/26 11:45:17;;;;;;;35.53;22.25;;;;;;;31.92;56.80;98274.84;4965352;28;20051;-73
2022/09/26 11:48:59;;;;;;;37.95;25.75;;;;;;;31.75;56.67;98270.53;4977960;28;20103;-72
2022/09/26 11:52:28;;;;;;;47.42;27.67;;;;;;;31.80;56.92;98275.03;4981269;28;20065;-68
2022/09/26 11:55:37;;;;;;;45.80;28.00;;;;;;;31.74;56.16;98276.50;4974443;28;20526;-71
2022/09/26 11:58:26;;;;;;;46.13;29.63;;;;;;;31.82;55.69;98274.66;4946246;28;20053;-70
2022/09/26 12:01:34;;;;;;;47.40;30.08;;;;;;;31.74;56.66;98268.16;4953093;28;20055;-72
2022/09/26 12:04:52;;;;;;;54.70;29.77;;;;;;;31.68;56.96;98266.84;4972214;28;20042;-70
2022/09/26 12:07:47;;;;;;;56.95;29.17;;;;;;;31.62;57.78;98266.31;4981300;28;20137;-70
2022/09/26 12:10:38;;;;;;;50.75;30.63;;;;;;;31.56;58.26;98270.56;4979331;28;20054;-70
2022/09/26 12:13:39;;;;;;;47.45;29.90;;;;;;;31.52;58.82;98272.47;4971781;28;20038;-72
2022/09/26 12:16:34;;;;;;;59.20;31.45;;;;;;;31.39;57.95;98269.81;4979031;28;20062;-71
2022/09/26 12:19:26;;;;;;;57.20;32.65;;;;;;;31.51;57.94;98266.13;4977434;28;20042;-71
2022/09/26 12:22:35;;;;;;;53.85;31.48;;;;;;;31.48;57.89;98266.84;4955996;28;20055;-69
2022/09/26 12:25:33;;;;;;;54.42;32.55;;;;;;;31.31;58.35;98256.94;4966778;28;20117;-68
2022/09/26 12:28:56;;;;;;;59.30;33.25;;;;;;;31.25;58.21;98257.59;4972499;28;20073;-69
2022/09/26 12:32:07;;;;;;;53.47;32.33;;;;;;;31.15;59.63;98257.00;4983100;28;20075;-69
2022/09/26 12:35:30;;;;;;;68.28;34.75;;;;;;;31.23;59.55;98258.75;4976584;28;20042;-69
2022/09/26 12:38:19;;;;;;;61.63;36.40;;;;;;;31.12;60.45;98265.22;4938590;28;20812;-69
2022/09/26 12:41:25;;;;;;;67.50;36.95;;;;;;;31.13;61.05;98269.63;4949721;28;20054;-70
2022/09/26 12:44:38;;;;;;;64.28;35.50;;;;;;;31.10;60.57;98262.81;4986328;28;20137;-70
2022/09/26 12:47:36;;;;;;;59.58;36.17;;;;;;;31.12;60.67;98265.22;4957805;28;20051;-70
2022/09/26 12:50:24;;;;;;;58.83;35.42;;;;;;;30.96;62.78;98268.84;4997248;28;20054;-69
2022/09/26 12:53:34;;;;;;;60.92;35.22;;;;;;;30.89;62.43;98268.63;5004874;28;20069;-69
2022/09/26 12:56:41;;;;;;;63.87;35.43;;;;;;;30.76;63.36;98278.22;4979741;28;20054;-69
2022/09/26 12:59:42;;;;;;;63.70;34.35;;;;;;;30.70;63.67;98274.91;4977505;28;20051;-72
2022/09/26 13:02:42;;;;;;;54.13;32.45;;;;;;;30.71;63.11;98272.97;4961336;28;20054;-70
2022/09/26 13:05:49;;;;;;;56.60;33.30;;;;;;;30.67;64.25;98272.88;4986691;28;20058;-71
2022/09/26 13:09:04;;;;;;;53.58;32.72;;;;;;;30.63;64.08;98277.53;4986795;28;20463;-70
2022/09/26 13:12:15;;;;;;;61.73;32.63;;;;;;;30.54;63.93;98282.44;4653296;28;10000541;-72
2022/09/26 13:14:59;;;;;;;48.85;30.42;;;;;;;30.55;64.31;98276.53;4964367;28;20279;-75
2022/09/26 13:17:53;;;;;;;53.50;30.48;;;;;;;30.49;65.83;98277.97;4961811;28;20051;-71
2022/09/26 13:20:54;;;;;;;48.33;30.92;;;;;;;30.48;64.97;98281.91;4978739;28;20057;-71
2022/09/26 13:24:17;;;;;;;51.63;28.20;;;;;;;30.39;64.81;98273.78;4983947;28;20052;-74
2022/09/26 13:27:28;;;;;;;44.03;26.35;;;;;;;30.52;63.28;98276.47;4966901;28;20053;-72
2022/09/26 13:30:34;;;;;;;48.42;27.23;;;;;;;30.42;64.12;98283.31;4963864;28;20054;-68
2022/09/26 13:33:24;;;;;;;40.75;25.60;;;;;;;30.38;64.08;98276.88;4981185;28;20056;-71
2022/09/26 13:36:15;;;;;;;48.22;27.27;;;;;;;30.37;64.74;98280.84;4983042;28;20153;-69
2022/09/26 13:39:02;;;;;;;41.88;24.60;;;;;;;30.49;63.83;98288.25;4981140;28;20065;-72
2022/09/26 13:42:18;;;;;;;33.83;22.40;;;;;;;30.40;63.17;98288.41;4983099;28;20082;-73
2022/09/26 13:45:15;;;;;;;38.75;22.33;;;;;;;30.35;63.57;98289.50;4983445;28;20061;-70
2022/09/26 13:48:35;;;;;;;37.47;22.05;;;;;;;30.33;64.28;98293.78;4983210;28;20498;-71
2022/09/26 13:51:25;;;;;;;37.22;18.40;;;;;;;30.37;63.17;98291.91;4981429;28;20068;-69
2022/09/26 13:54:26;;;;;;;33.13;18.45;;;;;;;30.26;63.60;98303.44;4963964;28;20054;-71